Arthurdale, West Virginia
Current Conditions -  °F | °C
As of 3:53 AM on Saturday 25 Oct 2014 (Local Time) from KMGW Reporting Station
Overcast Overcast  
Wind Chill: 50°   Ceiling: 4300
Heat Index: 50°   Visibility: 10mi
Dew Point: 38°   Wind: 5mph
Humidity: 63%   Direction: 220°SW
Pressure: 30.02"   Gusts: NA
Location:  39.49°N, 79.82°W
Report Text: KMGW 250753Z AUTO 22004KT 10SM OVC043 10/03 A3002 RMK AO2 SLP163 T01000033 TSNO
Loading
Personal Weather Stations






























Interactive Weather Map
Tropical Storm Tracking
New forecast layout! Learn more

10-Day Weather Forecast

Advertisements
Track Severe Weather on mobile